Time;durP1;ratioP1;P1;durP2;ratioP2;P2;SDS_P1;SDS_P2;PMS_P1;PMS_P2;Temp;Humidity;BMP_temperature;BMP_pressure;BME280_temperature;BME280_humidity;BME280_pressure;Samples;Min_cycle;Max_cycle;Signal;HPM_P1;HPM_P2
2023/08/28 00:02:17;;;;;;;6.13;5.30;;;13.10;99.90;;;;;;5070585;28;20208;-72
2023/08/28 00:04:42;;;;;;;6.03;5.53;;;13.00;99.90;;;;;;5070685;28;20225;-73
2023/08/28 00:07:08;;;;;;;5.57;5.07;;;13.00;99.90;;;;;;5071052;28;20181;-72
2023/08/28 00:09:34;;;;;;;6.00;5.50;;;13.00;99.90;;;;;;5069147;28;20713;-72
2023/08/28 00:12:03;;;;;;;6.50;5.90;;;13.00;99.90;;;;;;5074614;28;20162;-72
2023/08/28 00:14:29;;;;;;;5.63;5.13;;;13.00;99.90;;;;;;5074658;28;20198;-72
2023/08/28 00:16:54;;;;;;;6.10;5.60;;;13.00;99.90;;;;;;5075181;28;20533;-73
2023/08/28 00:19:20;;;;;;;6.10;5.60;;;13.00;99.90;;;;;;5075041;28;20186;-72
2023/08/28 00:21:46;;;;;;;6.00;5.50;;;13.00;99.90;;;;;;5058231;28;20183;-72
2023/08/28 00:24:11;;;;;;;6.53;5.97;;;13.00;99.90;;;;;;5054497;28;20281;-72
2023/08/28 00:26:37;;;;;;;5.97;5.47;;;13.00;99.90;;;;;;5054813;28;20494;-72
2023/08/28 00:29:03;;;;;;;6.20;5.53;;;13.10;99.90;;;;;;5054900;28;20206;-71
2023/08/28 00:31:28;;;;;;;5.83;5.20;;;13.10;99.90;;;;;;5054461;28;20167;-72
2023/08/28 00:33:54;;;;;;;6.33;5.73;;;13.00;99.90;;;;;;5054487;28;20584;-71
2023/08/28 00:36:20;;;;;;;6.70;5.70;;;13.00;99.90;;;;;;5054416;28;20190;-71
2023/08/28 00:38:46;;;;;;;6.37;5.60;;;13.00;99.90;;;;;;5054545;28;20587;-71
2023/08/28 00:41:11;;;;;;;6.57;5.73;;;13.00;99.90;;;;;;5054364;28;20190;-71
2023/08/28 00:43:37;;;;;;;7.43;6.20;;;13.00;99.90;;;;;;5054208;28;20272;-71
2023/08/28 00:46:04;;;;;;;5.90;5.40;;;13.00;99.90;;;;;;5054479;28;20167;-72
2023/08/28 00:48:31;;;;;;;7.50;5.97;;;13.00;99.90;;;;;;5054139;28;20558;-71
2023/08/28 00:50:57;;;;;;;6.20;5.60;;;13.00;99.90;;;;;;5054422;28;20577;-71
2023/08/28 00:53:23;;;;;;;6.00;5.37;;;13.00;99.90;;;;;;5054084;28;20174;-72
2023/08/28 00:55:49;;;;;;;5.70;5.30;;;13.00;99.90;;;;;;5054135;28;20187;-72
2023/08/28 00:58:15;;;;;;;5.83;5.33;;;12.90;99.90;;;;;;5054193;28;20519;-71
2023/08/28 01:00:41;;;;;;;6.23;5.63;;;12.90;99.90;;;;;;5054177;28;20541;-71
2023/08/28 01:03:07;;;;;;;6.13;5.47;;;12.90;99.90;;;;;;5053807;28;20183;-72
2023/08/28 01:05:58;;;;;;;7.23;6.40;;;12.90;99.90;;;;;;5055063;28;20198;-71
2023/08/28 01:08:45;;;;;;;6.83;5.83;;;12.90;99.90;;;;;;5053951;28;20203;-71
2023/08/28 01:11:18;;;;;;;6.43;5.90;;;12.80;99.90;;;;;;5054216;28;20542;-72
2023/08/28 01:13:56;;;;;;;6.93;6.33;;;12.80;99.90;;;;;;5065222;28;20194;-71
2023/08/28 01:16:26;;;;;;;7.40;6.70;;;12.80;99.90;;;;;;5073847;28;20588;-71
2023/08/28 01:18:52;;;;;;;14.73;6.67;;;12.80;99.90;;;;;;5073851;28;20170;-71
2023/08/28 01:21:18;;;;;;;7.00;6.40;;;12.80;99.90;;;;;;5073689;28;20220;-71
2023/08/28 01:23:54;;;;;;;7.47;6.77;;;12.80;99.90;;;;;;5072900;28;20652;-71
2023/08/28 01:26:21;;;;;;;7.23;6.53;;;12.80;99.90;;;;;;5073832;28;20178;-71
2023/08/28 01:28:46;;;;;;;7.90;7.10;;;12.80;99.90;;;;;;5073123;28;20293;-71
2023/08/28 01:31:12;;;;;;;7.03;6.33;;;12.80;99.90;;;;;;5073684;28;20613;-72
2023/08/28 01:33:39;;;;;;;7.57;6.80;;;12.80;99.90;;;;;;5073134;28;20196;-71
2023/08/28 01:36:32;;;;;;;7.33;6.30;;;12.80;99.90;;;;;;5072266;28;20685;-71
2023/08/28 01:39:04;;;;;;;7.43;6.73;;;12.70;99.90;;;;;;5073566;28;20170;-71
2023/08/28 01:41:30;;;;;;;8.83;7.03;;;12.70;99.90;;;;;;5072555;28;20194;-71
2023/08/28 01:44:01;;;;;;;7.80;7.20;;;12.70;99.90;;;;;;5073211;28;20204;-71
2023/08/28 01:46:28;;;;;;;7.97;7.13;;;12.60;99.90;;;;;;5073340;28;20253;-71
2023/08/28 01:48:54;;;;;;;7.63;6.70;;;12.60;99.90;;;;;;5073218;28;20210;-71
2023/08/28 01:51:20;;;;;;;7.93;7.13;;;12.60;99.90;;;;;;5073311;28;20162;-72
2023/08/28 01:53:47;;;;;;;7.63;6.93;;;12.60;99.90;;;;;;5072903;28;20296;-72
2023/08/28 01:56:20;;;;;;;8.33;7.13;;;12.60;99.90;;;;;;5072979;28;20174;-71
2023/08/28 01:58:51;;;;;;;7.60;7.00;;;12.60;99.90;;;;;;5073007;28;20178;-71
2023/08/28 02:01:17;;;;;;;9.13;7.47;;;12.60;99.90;;;;;;5072969;28;20636;-71
2023/08/28 02:03:43;;;;;;;8.33;7.53;;;12.60;99.90;;;;;;5072589;28;20249;-71
2023/08/28 02:06:09;;;;;;;7.27;6.67;;;12.60;99.90;;;;;;5072850;28;20196;-71
2023/08/28 02:08:36;;;;;;;8.27;7.57;;;12.60;99.90;;;;;;5059136;28;20731;-72
2023/08/28 02:11:01;;;;;;;8.60;7.57;;;12.60;99.90;;;;;;5051441;28;20171;-71
2023/08/28 02:13:27;;;;;;;7.63;6.63;;;12.60;99.90;;;;;;5051013;28;20182;-72
2023/08/28 02:15:53;;;;;;;8.83;7.43;;;12.60;99.90;;;;;;5051337;28;20660;-72
2023/08/28 02:18:19;;;;;;;7.47;6.83;;;12.50;99.90;;;;;;5052683;28;20597;-71
2023/08/28 02:20:45;;;;;;;10.40;6.80;;;12.50;99.90;;;;;;5052541;28;20178;-71
2023/08/28 02:23:11;;;;;;;7.17;6.50;;;12.50;99.90;;;;;;5052602;28;20186;-72
2023/08/28 02:25:43;;;;;;;7.43;6.73;;;12.50;99.90;;;;;;5052770;28;20206;-71
2023/08/28 02:28:09;;;;;;;7.17;6.13;;;12.40;99.90;;;;;;5051320;28;20198;-71
2023/08/28 02:30:35;;;;;;;7.57;6.97;;;12.40;99.90;;;;;;5051734;28;20167;-71
2023/08/28 02:33:00;;;;;;;8.73;6.83;;;12.40;99.90;;;;;;5053398;28;20167;-72
2023/08/28 02:35:26;;;;;;;10.47;6.83;;;12.40;99.90;;;;;;5071117;28;20196;-72
2023/08/28 02:37:51;;;;;;;7.80;7.10;;;12.30;99.90;;;;;;5070989;28;20300;-71
2023/08/28 02:40:17;;;;;;;7.57;6.67;;;12.20;99.90;;;;;;5071230;28;20176;-71
2023/08/28 02:42:43;;;;;;;9.73;7.03;;;12.20;99.90;;;;;;5071839;28;20243;-72
2023/08/28 02:45:09;;;;;;;11.37;7.20;;;12.20;99.90;;;;;;5072368;28;20186;-72
2023/08/28 02:47:34;;;;;;;8.20;7.27;;;12.20;99.90;;;;;;5071673;28;20205;-72
2023/08/28 02:50:00;;;;;;;7.73;7.00;;;12.20;99.90;;;;;;5052418;28;20198;-71
2023/08/28 02:52:25;;;;;;;7.40;6.80;;;12.20;99.90;;;;;;5051759;28;20261;-71
2023/08/28 02:54:51;;;;;;;7.60;7.00;;;12.10;99.90;;;;;;5052094;28;20628;-72
2023/08/28 02:57:18;;;;;;;7.53;6.83;;;12.10;99.90;;;;;;5052165;28;20175;-72
2023/08/28 02:59:44;;;;;;;8.80;6.40;;;12.20;99.90;;;;;;5052046;28;20175;-71
2023/08/28 03:02:10;;;;;;;7.27;6.57;;;12.10;99.90;;;;;;5067358;28;20212;-71
2023/08/28 03:04:35;;;;;;;8.37;7.17;;;12.10;99.90;;;;;;5071643;28;20295;-71
2023/08/28 03:07:01;;;;;;;7.40;6.70;;;12.10;99.90;;;;;;5071850;28;20216;-72
2023/08/28 03:09:29;;;;;;;8.00;6.87;;;12.00;99.90;;;;;;5071999;28;20170;-72
2023/08/28 03:11:55;;;;;;;7.73;6.90;;;12.00;99.90;;;;;;5071490;28;20266;-71
2023/08/28 03:14:20;;;;;;;6.87;6.37;;;12.00;99.90;;;;;;5071709;28;20202;-71
2023/08/28 03:16:46;;;;;;;6.60;6.10;;;12.00;99.90;;;;;;5071074;28;20197;-72
2023/08/28 03:19:12;;;;;;;6.73;6.10;;;12.00;99.90;;;;;;5071618;28;20205;-71
2023/08/28 03:21:37;;;;;;;7.17;6.67;;;12.00;99.90;;;;;;5070507;28;20170;-72
2023/08/28 03:24:03;;;;;;;7.60;7.00;;;12.00;99.90;;;;;;5071597;28;20204;-72
2023/08/28 03:26:29;;;;;;;8.33;7.27;;;12.00;99.90;;;;;;5071466;28;20178;-72
2023/08/28 03:28:55;;;;;;;7.47;6.77;;;12.00;99.90;;;;;;5059323;28;20625;-71
2023/08/28 03:31:22;;;;;;;8.00;7.30;;;12.00;99.90;;;;;;5051507;28;20208;-71
2023/08/28 03:33:48;;;;;;;7.27;6.67;;;12.00;99.90;;;;;;5051197;28;20183;-71
2023/08/28 03:36:13;;;;;;;7.00;6.40;;;12.00;99.90;;;;;;5051652;28;20179;-71
2023/08/28 03:38:39;;;;;;;7.50;6.70;;;12.00;99.90;;;;;;5051204;28;20228;-72
2023/08/28 03:41:04;;;;;;;7.57;6.73;;;12.00;99.90;;;;;;5051370;28;20179;-71
2023/08/28 03:43:30;;;;;;;8.17;6.77;;;12.00;99.90;;;;;;5050924;28;20556;-71
2023/08/28 03:45:56;;;;;;;7.50;6.83;;;11.90;99.90;;;;;;5049819;28;20167;-72
2023/08/28 03:48:21;;;;;;;7.33;6.63;;;11.90;99.90;;;;;;5051402;28;20232;-71
2023/08/28 03:50:47;;;;;;;7.83;7.13;;;11.90;99.90;;;;;;5051269;28;20171;-71
2023/08/28 03:53:12;;;;;;;7.13;6.43;;;11.90;99.90;;;;;;5051229;28;20258;-71
2023/08/28 03:55:38;;;;;;;7.77;7.17;;;11.90;99.90;;;;;;5050076;28;20691;-71
2023/08/28 03:58:04;;;;;;;7.30;6.70;;;11.80;99.90;;;;;;5051437;28;20205;-71
2023/08/28 04:00:33;;;;;;;9.27;6.63;;;11.80;99.90;;;;;;5051232;28;20575;-71
2023/08/28 04:02:59;;;;;;;7.00;6.40;;;11.80;99.90;;;;;;5051012;28;20607;-72
2023/08/28 04:05:26;;;;;;;7.43;6.83;;;11.80;99.90;;;;;;5051154;28;20266;-71
2023/08/28 04:07:52;;;;;;;8.03;7.33;;;11.70;99.90;;;;;;5051028;28;20596;-71
2023/08/28 04:10:18;;;;;;;7.67;6.90;;;11.70;99.90;;;;;;5050913;28;20204;-71
2023/08/28 04:12:44;;;;;;;8.37;7.67;;;11.80;99.90;;;;;;5050648;28;20526;-71
2023/08/28 04:15:10;;;;;;;10.80;7.47;;;11.80;99.90;;;;;;5051196;28;20201;-70
2023/08/28 04:17:36;;;;;;;8.03;7.23;;;11.80;99.90;;;;;;5050940;28;20210;-71
2023/08/28 04:20:12;;;;;;;7.80;7.20;;;11.80;99.90;;;;;;5051219;28;20175;-71
2023/08/28 04:22:47;;;;;;;7.93;7.13;;;11.90;99.90;;;;;;5054586;28;20569;-72
2023/08/28 04:25:13;;;;;;;9.97;7.30;;;11.90;99.90;;;;;;5071025;28;20272;-72
2023/08/28 04:27:40;;;;;;;9.50;7.47;;;11.90;99.90;;;;;;5070867;28;20193;-72
2023/08/28 04:30:08;;;;;;;8.07;7.10;;;12.00;99.90;;;;;;5070365;28;20261;-71
2023/08/28 04:32:34;;;;;;;8.07;7.27;;;12.00;99.90;;;;;;5070205;28;20185;-73
2023/08/28 04:35:00;;;;;;;7.70;7.00;;;12.00;99.90;;;;;;5070781;28;20202;-73
2023/08/28 04:37:26;;;;;;;8.63;7.00;;;12.00;99.90;;;;;;5070755;28;20239;-72
2023/08/28 04:39:52;;;;;;;7.43;6.83;;;12.00;99.90;;;;;;5070720;28;20249;-71
2023/08/28 04:42:18;;;;;;;7.40;6.77;;;12.00;99.90;;;;;;5068964;28;20190;-70
2023/08/28 04:44:44;;;;;;;7.50;6.87;;;12.00;99.90;;;;;;5070328;28;20495;-71
2023/08/28 04:47:10;;;;;;;8.40;7.17;;;12.00;99.90;;;;;;5070720;28;20197;-71
2023/08/28 04:49:35;;;;;;;7.97;7.27;;;11.90;99.90;;;;;;5069254;28;20296;-71
2023/08/28 04:52:02;;;;;;;7.83;7.13;;;12.00;99.90;;;;;;5050341;28;20183;-72
2023/08/28 04:54:28;;;;;;;7.13;6.53;;;12.00;99.90;;;;;;5050257;28;20195;-71
2023/08/28 04:56:55;;;;;;;7.27;6.50;;;12.00;99.90;;;;;;5050134;28;20225;-71
2023/08/28 04:59:21;;;;;;;7.37;6.77;;;12.00;99.90;;;;;;5054306;28;20551;-71
2023/08/28 05:01:46;;;;;;;8.97;6.87;;;12.10;99.90;;;;;;5054031;28;20181;-71
2023/08/28 05:04:12;;;;;;;7.47;6.77;;;12.10;99.90;;;;;;5054196;28;20274;-72
2023/08/28 05:06:38;;;;;;;7.83;7.03;;;12.10;99.90;;;;;;5054512;28;20175;-72
2023/08/28 05:09:03;;;;;;;9.40;7.60;;;12.10;99.90;;;;;;5053903;28;20175;-71
2023/08/28 05:11:29;;;;;;;7.70;6.90;;;12.10;99.90;;;;;;5053887;28;20210;-72
2023/08/28 05:13:54;;;;;;;7.17;6.57;;;12.10;99.90;;;;;;5053617;28;20320;-71
2023/08/28 05:16:20;;;;;;;7.77;7.10;;;12.10;99.90;;;;;;5054046;28;20182;-73
2023/08/28 05:18:46;;;;;;;7.13;6.50;;;12.10;99.90;;;;;;5053815;28;20221;-72
2023/08/28 05:21:11;;;;;;;8.87;6.50;;;12.20;99.90;;;;;;5070549;28;20209;-71
2023/08/28 05:23:37;;;;;;;8.60;7.80;;;12.10;99.90;;;;;;5071933;28;20651;-72
2023/08/28 05:26:03;;;;;;;9.67;7.13;;;12.10;99.90;;;;;;5073885;28;20624;-72
2023/08/28 05:28:31;;;;;;;7.50;6.73;;;12.10;99.90;;;;;;5073586;28;20170;-73
2023/08/28 05:30:57;;;;;;;8.07;7.27;;;12.10;99.90;;;;;;5073650;28;20181;-72
2023/08/28 05:33:23;;;;;;;8.10;7.30;;;12.10;99.90;;;;;;5058561;28;20249;-72
2023/08/28 05:35:49;;;;;;;8.37;7.47;;;12.10;99.90;;;;;;5053476;28;20664;-72
2023/08/28 05:38:15;;;;;;;9.67;7.53;;;12.10;99.90;;;;;;5053585;28;20580;-72
2023/08/28 05:40:41;;;;;;;8.57;7.23;;;12.20;99.90;;;;;;5052087;28;20171;-72
2023/08/28 05:43:06;;;;;;;8.20;7.43;;;12.30;99.90;;;;;;5053528;28;20265;-72
2023/08/28 05:45:32;;;;;;;8.83;7.60;;;12.30;99.90;;;;;;5054328;28;20684;-72
2023/08/28 05:47:58;;;;;;;8.57;7.77;;;12.40;99.90;;;;;;5052187;28;20174;-72
2023/08/28 05:50:23;;;;;;;8.93;8.10;;;12.50;99.90;;;;;;5053349;28;20232;-72
2023/08/28 05:52:49;;;;;;;7.47;6.83;;;12.50;99.90;;;;;;5053000;28;20202;-72
2023/08/28 05:55:14;;;;;;;8.13;7.23;;;12.60;99.90;;;;;;5053214;28;20289;-72
2023/08/28 05:57:41;;;;;;;8.53;7.73;;;12.60;99.90;;;;;;5053195;28;20206;-72
2023/08/28 06:00:08;;;;;;;8.53;7.77;;;12.70;99.90;;;;;;5062393;28;20178;-71
2023/08/28 06:02:34;;;;;;;8.13;7.43;;;12.70;99.90;;;;;;5072800;28;20220;-72
2023/08/28 06:04:59;;;;;;;8.60;7.87;;;12.80;99.90;;;;;;5073081;28;20190;-72
2023/08/28 06:07:25;;;;;;;9.73;8.27;;;12.90;99.90;;;;;;5073117;28;20625;-72
2023/08/28 06:09:51;;;;;;;9.27;8.37;;;13.10;99.90;;;;;;5072479;28;20174;-72
2023/08/28 06:12:17;;;;;;;8.67;7.97;;;13.40;99.90;;;;;;5072407;28;20250;-72
2023/08/28 06:14:43;;;;;;;8.83;8.03;;;13.70;99.90;;;;;;5064200;28;20302;-71
2023/08/28 06:17:08;;;;;;;13.33;7.50;;;14.20;99.90;;;;;;5053370;28;20190;-73
2023/08/28 06:19:34;;;;;;;7.73;7.13;;;14.60;99.90;;;;;;5052713;28;20596;-72
2023/08/28 06:22:04;;;;;;;6.80;6.27;;;15.10;99.90;;;;;;5050925;28;20178;-73
2023/08/28 06:24:30;;;;;;;5.40;5.00;;;15.70;99.90;;;;;;5056288;28;20210;-71
2023/08/28 06:26:56;;;;;;;4.90;4.43;;;16.20;99.90;;;;;;5052704;28;20232;-72
2023/08/28 06:29:21;;;;;;;4.60;4.20;;;16.60;99.90;;;;;;5052578;28;20625;-72
2023/08/28 06:31:47;;;;;;;3.80;3.40;;;16.80;99.90;;;;;;5050846;28;20183;-72
2023/08/28 06:34:14;;;;;;;3.47;3.27;;;17.10;99.90;;;;;;5052095;28;20659;-72
2023/08/28 06:36:40;;;;;;;3.50;3.20;;;17.30;99.90;;;;;;5051899;28;20258;-73
2023/08/28 06:39:07;;;;;;;4.20;3.60;;;17.70;99.90;;;;;;5052117;28;20221;-73
2023/08/28 06:41:33;;;;;;;3.30;3.00;;;18.10;99.90;;;;;;5050453;28;20507;-71
2023/08/28 06:44:00;;;;;;;4.03;3.20;;;18.50;99.90;;;;;;5052341;28;20340;-73
2023/08/28 06:46:25;;;;;;;3.33;3.03;;;19.10;99.90;;;;;;5051873;28;20174;-72
2023/08/28 06:48:52;;;;;;;3.30;2.63;;;19.60;99.90;;;;;;5052022;28;20183;-72
2023/08/28 06:51:21;;;;;;;3.90;3.65;;;20.00;99.90;;;;;;5051713;28;20182;-72
2023/08/28 06:53:48;;;;;;;3.97;3.60;;;20.50;99.90;;;;;;5069403;28;20190;-73
2023/08/28 06:56:14;;;;;;;3.65;3.22;;;20.80;99.90;;;;;;5072193;28;20201;-72
2023/08/28 06:58:39;;;;;;;4.15;3.38;;;21.10;99.90;;;;;;5071424;28;20299;-72
2023/08/28 07:01:05;;;;;;;3.90;3.60;;;21.30;99.90;;;;;;5071758;28;20171;-72
2023/08/28 07:03:30;;;;;;;3.22;3.03;;;21.40;99.90;;;;;;5071333;28;20178;-72
2023/08/28 07:05:56;;;;;;;5.85;3.05;;;21.70;99.90;;;;;;5071500;28;20206;-72
2023/08/28 07:08:22;;;;;;;4.70;4.10;;;21.80;99.90;;;;;;5055482;28;20187;-73
2023/08/28 07:10:47;;;;;;;5.68;5.28;;;22.00;99.90;;;;;;5051635;28;20264;-72
2023/08/28 07:13:13;;;;;;;4.70;4.30;;;22.30;99.90;;;;;;5051418;28;20648;-72
2023/08/28 07:15:41;;;;;;;4.78;4.43;;;22.60;99.90;;;;;;5067365;28;20277;-72
2023/08/28 07:18:07;;;;;;;6.10;5.65;;;22.80;99.90;;;;;;5071490;28;20194;-73
2023/08/28 07:20:34;;;;;;;7.00;6.50;;;22.90;99.90;;;;;;5069076;28;20182;-72
2023/08/28 07:23:00;;;;;;;3.58;3.28;;;22.80;99.90;;;;;;5071237;28;20581;-72
2023/08/28 07:25:27;;;;;;;4.53;3.20;;;22.80;99.90;;;;;;5071646;28;20190;-72
2023/08/28 07:27:53;;;;;;;6.18;3.80;;;22.90;99.90;;;;;;5071415;28;20662;-72
2023/08/28 07:30:19;;;;;;;4.05;3.63;;;23.10;99.90;;;;;;5071720;28;20177;-71
2023/08/28 07:32:45;;;;;;;7.13;5.00;;;23.00;99.90;;;;;;5070862;28;20674;-70
2023/08/28 07:35:10;;;;;;;7.05;6.35;;;23.10;99.90;;;;;;5059842;28;20627;-70
2023/08/28 07:37:37;;;;;;;4.85;4.45;;;23.10;99.90;;;;;;5050068;28;20211;-70
2023/08/28 07:40:04;;;;;;;5.35;4.53;;;23.10;99.90;;;;;;5051358;28;20537;-71
2023/08/28 07:42:30;;;;;;;4.22;3.60;;;23.00;99.90;;;;;;5050747;28;20186;-71
2023/08/28 07:44:56;;;;;;;4.88;3.53;;;22.60;99.90;;;;;;5051440;28;20555;-71
2023/08/28 07:47:22;;;;;;;5.45;4.95;;;22.50;99.90;;;;;;5059766;28;20261;-70
2023/08/28 07:49:47;;;;;;;8.02;7.45;;;22.50;99.90;;;;;;5071206;28;20170;-70
2023/08/28 07:52:13;;;;;;;4.50;4.10;;;22.80;99.90;;;;;;5071090;28;20174;-71
2023/08/28 07:54:39;;;;;;;5.30;4.30;;;23.00;99.90;;;;;;5070656;28;20186;-71
2023/08/28 07:57:04;;;;;;;4.78;4.25;;;22.90;99.90;;;;;;5071464;28;20539;-70
2023/08/28 07:59:30;;;;;;;4.78;4.38;;;22.70;99.90;;;;;;5071223;28;20276;-71
2023/08/28 08:01:57;;;;;;;5.25;4.82;;;22.50;99.90;;;;;;5070856;28;20166;-70
2023/08/28 08:04:23;;;;;;;6.75;4.68;;;22.60;99.90;;;;;;5071168;28;20186;-70
2023/08/28 08:06:49;;;;;;;5.57;5.07;;;22.70;99.90;;;;;;5070829;28;20653;-70
2023/08/28 08:09:14;;;;;;;4.40;4.00;;;22.70;99.90;;;;;;5055198;28;20187;-69
2023/08/28 08:11:40;;;;;;;9.77;4.95;;;22.90;99.90;;;;;;5050655;28;20638;-71
2023/08/28 08:14:06;;;;;;;5.95;4.70;;;22.80;99.90;;;;;;5054306;28;20234;-71
2023/08/28 08:16:31;;;;;;;4.70;4.32;;;22.80;99.90;;;;;;5069025;28;20270;-72
2023/08/28 08:18:57;;;;;;;6.70;6.10;;;23.10;99.90;;;;;;5070919;28;20202;-71
2023/08/28 08:21:23;;;;;;;6.13;5.53;;;23.10;99.90;;;;;;5066265;28;20694;-70
2023/08/28 08:23:49;;;;;;;4.35;4.00;;;22.80;99.90;;;;;;5048780;28;20582;-71
2023/08/28 08:26:15;;;;;;;5.03;4.43;;;22.80;99.90;;;;;;5066090;28;20261;-73
2023/08/28 08:28:41;;;;;;;6.18;5.70;;;23.00;99.90;;;;;;5070049;28;20218;-71
2023/08/28 08:31:07;;;;;;;7.47;6.78;;;23.20;99.90;;;;;;5069167;28;20170;-70
2023/08/28 08:33:32;;;;;;;6.70;5.07;;;23.50;99.90;;;;;;5070509;28;20179;-70
2023/08/28 08:35:58;;;;;;;6.63;5.97;;;23.20;99.90;;;;;;5065823;28;20659;-71
2023/08/28 08:38:24;;;;;;;7.00;6.43;;;23.20;99.90;;;;;;5065273;28;20616;-70
2023/08/28 08:40:58;;;;;;;6.28;5.68;;;23.50;99.90;;;;;;5054425;28;20193;-70
2023/08/28 08:43:28;;;;;;;4.40;4.00;;;23.70;99.90;;;;;;5063374;28;20173;-71
2023/08/28 08:46:05;;;;;;;8.23;7.50;;;24.00;99.90;;;;;;5073081;28;20236;-71
2023/08/28 08:48:34;;;;;;;6.75;6.25;;;24.60;99.90;;;;;;5074174;28;20172;-70
2023/08/28 08:51:04;;;;;;;4.80;4.10;;;24.60;99.90;;;;;;5072908;28;20162;-71
2023/08/28 08:53:45;;;;;;;7.57;4.30;;;24.80;99.90;;;;;;5074027;28;20166;-71
2023/08/28 08:56:16;;;;;;;6.68;4.30;;;24.70;99.90;;;;;;5074441;28;20193;-70
2023/08/28 08:58:43;;;;;;;5.80;4.28;;;24.20;99.90;;;;;;5074294;28;20213;-70
2023/08/28 09:01:09;;;;;;;4.10;3.70;;;24.00;99.90;;;;;;5074526;28;20163;-70
2023/08/28 09:03:37;;;;;;;7.35;3.33;;;23.90;99.90;;;;;;5074117;28;20227;-71
2023/08/28 09:06:07;;;;;;;3.83;3.58;;;23.70;99.90;;;;;;5074122;28;20198;-70
2023/08/28 09:08:36;;;;;;;4.25;3.78;;;23.70;99.90;;;;;;5064232;28;20177;-71
2023/08/28 09:11:04;;;;;;;4.20;3.90;;;23.90;99.90;;;;;;5069837;28;20571;-70
2023/08/28 09:13:30;;;;;;;5.05;4.63;;;23.70;99.90;;;;;;5072955;28;20666;-71
2023/08/28 09:15:56;;;;;;;4.47;4.07;;;23.60;99.90;;;;;;5055205;28;20206;-72
2023/08/28 09:18:25;;;;;;;3.47;3.08;;;23.30;99.90;;;;;;5055062;28;20233;-71
2023/08/28 09:21:05;;;;;;;5.53;5.03;;;23.10;99.90;;;;;;5054773;28;20664;-71
2023/08/28 09:23:31;;;;;;;6.32;4.50;;;23.00;99.90;;;;;;5054184;28;20178;-70
2023/08/28 09:25:57;;;;;;;8.50;7.90;;;22.90;99.90;;;;;;5055096;28;20182;-70
2023/08/28 09:28:23;;;;;;;15.27;14.38;;;22.70;99.90;;;;;;5056537;28;20174;-73
2023/08/28 09:30:49;;;;;;;17.63;16.60;;;22.60;99.90;;;;;;5072456;28;20178;-70
2023/08/28 09:33:15;;;;;;;21.25;20.25;;;22.70;99.90;;;;;;5073310;28;20670;-71
2023/08/28 09:35:42;;;;;;;8.40;7.80;;;22.30;99.90;;;;;;5073449;28;20201;-72
2023/08/28 09:38:08;;;;;;;6.32;5.93;;;22.20;99.90;;;;;;5073301;28;20204;-70
2023/08/28 09:40:40;;;;;;;7.03;6.53;;;22.10;99.90;;;;;;5073427;28;20166;-73
2023/08/28 09:43:15;;;;;;;6.60;5.53;;;22.10;99.90;;;;;;5072747;28;20320;-70
2023/08/28 09:45:43;;;;;;;4.97;4.65;;;22.20;99.90;;;;;;5068114;28;20278;-71
2023/08/28 09:48:10;;;;;;;5.97;4.30;;;22.20;99.90;;;;;;5053456;28;20178;-71
2023/08/28 09:50:38;;;;;;;4.60;3.78;;;22.10;99.90;;;;;;5053228;28;20648;-70
2023/08/28 09:53:09;;;;;;;4.70;4.22;;;22.30;99.90;;;;;;5053058;28;20178;-71
2023/08/28 09:55:51;;;;;;;6.65;5.25;;;22.30;99.90;;;;;;5052966;28;20203;-72
2023/08/28 09:58:18;;;;;;;4.25;3.95;;;22.30;99.90;;;;;;5053267;28;20198;-71
2023/08/28 10:00:44;;;;;;;4.15;3.88;;;22.10;99.90;;;;;;5059296;28;20477;-70
2023/08/28 10:03:12;;;;;;;3.67;3.17;;;21.80;99.90;;;;;;5068140;28;20182;-70
2023/08/28 10:05:39;;;;;;;3.80;3.60;;;21.80;99.90;;;;;;5061150;28;20189;-71
2023/08/28 10:08:08;;;;;;;10.25;9.35;;;21.60;99.90;;;;;;5068630;28;20182;-70
2023/08/28 10:10:35;;;;;;;5.05;4.55;;;21.40;99.90;;;;;;5052303;28;20224;-71
2023/08/28 10:13:04;;;;;;;3.40;3.20;;;21.50;99.90;;;;;;5052678;28;20178;-70
2023/08/28 10:15:31;;;;;;;4.63;4.28;;;21.70;99.90;;;;;;5070189;28;20642;-70
2023/08/28 10:18:06;;;;;;;5.72;4.93;;;21.70;99.90;;;;;;5072893;28;20205;-71
2023/08/28 10:20:34;;;;;;;5.13;4.60;;;21.70;99.90;;;;;;5072292;28;20170;-72
2023/08/28 10:23:01;;;;;;;7.72;7.20;;;21.90;99.90;;;;;;5072091;28;20671;-73
2023/08/28 10:25:28;;;;;;;12.73;9.90;;;22.10;99.90;;;;;;5071845;28;20244;-72
2023/08/28 10:27:55;;;;;;;5.72;5.25;;;22.10;99.90;;;;;;5052551;28;20214;-72
2023/08/28 10:30:22;;;;;;;7.78;7.03;;;22.10;99.90;;;;;;5055693;28;20256;-72
2023/08/28 10:32:49;;;;;;;6.80;6.45;;;22.10;99.90;;;;;;5071838;28;20201;-72
2023/08/28 10:35:16;;;;;;;4.45;4.13;;;22.30;99.90;;;;;;5063733;28;20290;-72
2023/08/28 10:37:43;;;;;;;5.88;3.10;;;22.50;99.90;;;;;;5052310;28;20183;-72
2023/08/28 10:40:11;;;;;;;3.40;3.08;;;22.40;99.90;;;;;;5052055;28;20167;-72
2023/08/28 10:42:38;;;;;;;3.03;2.72;;;22.20;99.90;;;;;;5056567;28;20198;-72
2023/08/28 10:45:04;;;;;;;5.07;4.65;;;22.40;99.90;;;;;;5071606;28;20564;-72
2023/08/28 10:47:30;;;;;;;8.65;8.15;;;22.70;99.90;;;;;;5072087;28;20178;-73
2023/08/28 10:49:56;;;;;;;8.48;8.07;;;22.90;99.90;;;;;;5072083;28;20674;-72
2023/08/28 10:52:23;;;;;;;9.93;9.23;;;23.10;99.90;;;;;;5070013;28;20259;-72
2023/08/28 10:54:50;;;;;;;6.05;5.65;;;23.20;99.90;;;;;;5071400;28;20185;-72
2023/08/28 10:57:27;;;;;;;4.18;3.88;;;23.50;99.90;;;;;;5072366;28;20173;-72
2023/08/28 10:59:53;;;;;;;5.05;4.65;;;23.80;99.90;;;;;;5071921;28;20714;-72
2023/08/28 11:02:20;;;;;;;6.13;5.60;;;24.00;99.90;;;;;;5069874;28;20174;-72
2023/08/28 11:04:46;;;;;;;5.65;5.35;;;24.10;99.90;;;;;;5071295;28;20194;-73
2023/08/28 11:07:21;;;;;;;4.05;3.85;;;24.00;99.90;;;;;;5070791;28;20177;-72
2023/08/28 11:09:47;;;;;;;5.20;3.22;;;24.30;99.90;;;;;;5071548;28;20465;-73
2023/08/28 11:12:13;;;;;;;2.92;2.72;;;24.60;99.90;;;;;;5070798;28;20277;-71
2023/08/28 11:14:41;;;;;;;3.33;2.58;;;25.00;99.90;;;;;;5071142;28;20186;-75
2023/08/28 11:17:16;;;;;;;7.30;6.97;;;25.60;99.90;;;;;;5071888;28;20162;-72
2023/08/28 11:19:54;;;;;;;6.82;6.45;;;25.90;99.90;;;;;;5071485;28;20197;-72
2023/08/28 11:22:40;;;;;;;9.57;8.77;;;25.70;99.90;;;;;;5071347;28;20158;-72
2023/08/28 11:25:13;;;;;;;2.85;2.65;;;25.60;99.90;;;;;;5070579;28;20189;-72
2023/08/28 11:27:49;;;;;;;3.08;2.88;;;25.20;99.90;;;;;;5071434;28;20185;-72
2023/08/28 11:30:20;;;;;;;2.78;2.58;;;25.00;99.90;;;;;;5071319;28;20178;-72
2023/08/28 11:32:51;;;;;;;3.13;2.92;;;25.10;99.90;;;;;;5070946;28;20652;-73
2023/08/28 11:35:17;;;;;;;3.03;2.88;;;25.20;99.90;;;;;;5071514;28;20204;-73
2023/08/28 11:37:51;;;;;;;7.32;6.93;;;25.10;99.90;;;;;;5071126;28;20166;-73
2023/08/28 11:40:24;;;;;;;6.10;5.70;;;25.00;99.90;;;;;;5070248;28;20170;-74
2023/08/28 11:43:06;;;;;;;7.28;6.78;;;25.10;99.90;;;;;;5069096;28;20186;-73
2023/08/28 11:45:32;;;;;;;6.05;5.75;;;25.00;99.90;;;;;;5071556;28;20190;-74
2023/08/28 11:48:01;;;;;;;8.52;7.95;;;24.90;99.90;;;;;;5071573;28;20170;-73
2023/08/28 11:50:27;;;;;;;3.00;2.80;;;24.40;99.90;;;;;;5071744;28;20174;-72
2023/08/28 11:52:54;;;;;;;3.50;3.03;;;24.10;99.90;;;;;;5071624;28;20705;-73
2023/08/28 11:55:20;;;;;;;3.65;3.35;;;24.30;99.90;;;;;;5071569;28;20189;-73
2023/08/28 11:57:48;;;;;;;2.60;2.25;;;24.50;99.90;;;;;;5071274;28;20269;-74
2023/08/28 12:00:16;;;;;;;7.93;7.47;;;24.70;99.90;;;;;;5070894;28;20248;-73
2023/08/28 12:02:45;;;;;;;3.95;3.70;;;25.10;99.90;;;;;;5070880;28;20181;-73
2023/08/28 12:05:12;;;;;;;5.60;5.30;;;25.40;99.90;;;;;;5072455;28;20235;-73
2023/08/28 12:07:43;;;;;;;4.07;3.60;;;25.60;99.90;;;;;;5074994;28;20161;-73
2023/08/28 12:10:09;;;;;;;6.03;5.43;;;25.80;99.90;;;;;;5075841;28;20166;-73
2023/08/28 12:12:36;;;;;;;3.40;3.17;;;25.90;99.90;;;;;;5075141;28;20174;-73
2023/08/28 12:15:03;;;;;;;3.22;3.03;;;25.70;99.90;;;;;;5073921;28;20194;-73
2023/08/28 12:17:29;;;;;;;4.60;4.38;;;25.60;99.90;;;;;;5075598;28;20173;-73
2023/08/28 12:19:55;;;;;;;3.50;3.30;;;25.70;99.90;;;;;;5074924;28;20167;-73
2023/08/28 12:22:21;;;;;;;8.35;7.80;;;25.80;99.90;;;;;;5063059;28;20177;-73
2023/08/28 12:24:51;;;;;;;5.53;5.20;;;25.70;99.90;;;;;;5064893;28;20717;-73
2023/08/28 12:27:24;;;;;;;5.63;5.32;;;25.40;99.90;;;;;;5055282;28;20189;-73
2023/08/28 12:29:50;;;;;;;4.15;3.85;;;25.30;99.90;;;;;;5064481;28;20177;-72
2023/08/28 12:32:19;;;;;;;5.70;5.40;;;25.40;99.90;;;;;;5075126;28;20178;-72
2023/08/28 12:34:45;;;;;;;4.07;3.88;;;25.30;99.90;;;;;;5073514;28;20189;-73
2023/08/28 12:37:13;;;;;;;3.47;3.17;;;24.90;99.90;;;;;;5075309;28;20190;-73
2023/08/28 12:39:46;;;;;;;3.95;3.58;;;25.00;99.90;;;;;;5073772;28;20205;-73
2023/08/28 12:42:15;;;;;;;2.58;2.47;;;25.20;99.90;;;;;;5063678;28;20202;-73
2023/08/28 12:44:44;;;;;;;3.40;3.20;;;25.10;99.90;;;;;;5055814;28;20190;-73
2023/08/28 12:47:11;;;;;;;4.10;3.70;;;25.00;99.90;;;;;;5056321;28;20577;-73